EHKD/DHR METAR and TAF weather

Enter ICAO airport designator
Station Type Date Time Source
EHKD METAR 2018/10/21 06:25 UTC NOAA

EHKD 210625Z AUTO 19008KT 5000 BR BKN015 11/10 Q1027 WHT 19007KT 7000 SCT012 BKN015 TEMPO 4500 BR


Station Type Date Time Source
EHKD Decoded METAR 2018/10/21 06:25 UTC NOAA

De Kooy, Netherlands (EHKD) 52-55N 004-47E 14M
Oct 21, 2018 - 02:25 AM EDT / 2018.10.21 0625 UTC
Wind: from the S (190 degrees) at 9 MPH (8 KT):0
Visibility: 3 mile(s):0
Sky conditions: mostly cloudy
Weather: mist
Temperature: 51 F (11 C)
Dew Point: 50 F (10 C)
Relative Humidity: 93%
Pressure (altimeter): 30.33 in. Hg (1027 hPa)
ob: EHKD 210625Z AUTO 19008KT 5000 BR BKN015 11/10 Q1027 WHT 19007KT 7000 SCT012 BKN015 TEMPO 4500 BR
cycle: 6

Station Type Date Time Source
EHKD TAF 2018/10/21 05:09 UTC NOAA

TAF TAF COR EHKD 210502Z 2105/2117 19005KT 5000 BR SCT012 SCT035
BECMG 2108/2110 22012G22KT FEW012 SCT018


Example: see airport list